Spring Brook Township, Pennsylvania
Current Conditions -  °F | °C
As of 11:54 AM on Sunday 23 Nov 2014 (Local Time) from KAVP Reporting Station
Broken Clouds Broken Clouds  
Wind Chill: 45°   Ceiling: 10000
Heat Index: 49°   Visibility: 10mi
Dew Point: 22°   Wind: 10mph
Humidity: 35%   Direction: 280°W
Pressure: 30.12"   Gusts: NA
Location:  41.3369°N, 75.5571°W
Report Text: KAVP 231654Z 28009KT 10SM FEW046 SCT075 BKN100 09/M06 A3012 RMK AO2 RAB05E20 SLP203 P0000 T00941056
Loading
Personal Weather Stations






























Interactive Weather Map New forecast layout! Learn more

10-Day Weather Forecast

Advertisements
Track Severe Weather on mobile